createdAt,value
2022-10-22T00:00:47.538Z,15.15
2022-10-22T00:02:50.580Z,15.15
2022-10-22T00:04:53.968Z,15.09
2022-10-22T00:06:58.384Z,15.11
2022-10-22T00:09:01.618Z,15.14
2022-10-22T00:11:11.557Z,15.13
2022-10-22T00:13:14.803Z,15.15
2022-10-22T00:15:17.842Z,15.15
2022-10-22T00:17:21.259Z,15.13
2022-10-22T00:19:24.331Z,15.15
2022-10-22T00:21:29.096Z,15.13
2022-10-22T00:23:33.471Z,15.12
2022-10-22T00:25:37.159Z,15.08
2022-10-22T00:27:40.417Z,15.11
2022-10-22T00:29:44.507Z,15.11
2022-10-22T00:31:49.831Z,15.09
2022-10-22T00:33:52.913Z,15.07
2022-10-22T00:35:56.397Z,15.09
2022-10-22T00:37:59.433Z,15.10
2022-10-22T00:40:04.144Z,15.15
2022-10-22T00:42:07.142Z,15.15
2022-10-22T00:44:25.111Z,15.18
2022-10-22T00:46:28.846Z,15.21
2022-10-22T00:48:34.327Z,15.19
2022-10-22T00:50:40.169Z,15.17
2022-10-22T00:52:43.479Z,15.20
2022-10-22T00:54:46.695Z,15.25
2022-10-22T00:56:51.106Z,15.22
2022-10-22T00:58:56.557Z,15.23
2022-10-22T01:00:59.875Z,15.27
2022-10-22T01:03:03.426Z,15.25
2022-10-22T01:05:06.863Z,15.21
2022-10-22T01:07:13.580Z,15.21
2022-10-22T01:09:19.852Z,15.21
2022-10-22T01:11:25.168Z,15.17
2022-10-22T01:13:34.466Z,15.24
2022-10-22T01:15:40.731Z,15.24
2022-10-22T01:17:48.709Z,15.24
2022-10-22T01:20:00.243Z,15.16
2022-10-22T01:22:06.238Z,15.12
2022-10-22T01:24:28.095Z,15.17
2022-10-22T01:26:38.427Z,15.23
2022-10-22T01:28:51.311Z,15.28
2022-10-22T01:30:55.479Z,15.35
2022-10-22T01:33:02.117Z,15.36
2022-10-22T01:35:06.750Z,15.38
2022-10-22T01:37:11.557Z,15.37
2022-10-22T01:39:15.651Z,15.35
2022-10-22T01:41:18.731Z,15.32
2022-10-22T01:43:21.703Z,15.35
2022-10-22T01:45:26.387Z,15.37
2022-10-22T01:47:37.736Z,15.39
2022-10-22T01:49:48.402Z,15.39
2022-10-22T01:52:00.927Z,15.38
2022-10-22T01:54:08.310Z,15.42
2022-10-22T01:56:19.127Z,15.36
2022-10-22T01:58:27.047Z,15.24
2022-10-22T02:00:31.576Z,15.21
2022-10-22T02:02:37.662Z,15.24
2022-10-22T02:04:44.626Z,15.22
2022-10-22T02:06:48.995Z,15.20
2022-10-22T02:08:53.795Z,15.18
2022-10-22T02:10:57.574Z,15.16
2022-10-22T02:13:01.375Z,15.13
2022-10-22T02:15:05.423Z,15.14
2022-10-22T02:17:10.709Z,15.08
2022-10-22T02:19:16.991Z,15.09
2022-10-22T02:21:20.266Z,15.09
2022-10-22T02:23:23.928Z,15.08
2022-10-22T02:25:30.398Z,15.04
2022-10-22T02:27:36.631Z,15.10
2022-10-22T02:29:41.980Z,15.13
2022-10-22T02:31:45.658Z,15.12
2022-10-22T02:33:51.920Z,15.16
2022-10-22T02:35:56.714Z,15.20
2022-10-22T02:38:00.600Z,15.16
2022-10-22T02:40:04.216Z,15.14
2022-10-22T02:42:07.300Z,15.11
2022-10-22T02:44:11.403Z,15.05
2022-10-22T02:46:14.578Z,15.05
2022-10-22T02:48:17.863Z,15.09
2022-10-22T02:50:22.280Z,15.10
2022-10-22T02:52:25.287Z,15.09
2022-10-22T02:54:28.411Z,15.12
2022-10-22T02:56:31.390Z,15.15
2022-10-22T02:58:34.468Z,15.17
2022-10-22T03:00:37.528Z,15.19
2022-10-22T03:02:40.569Z,15.20
2022-10-22T03:04:43.619Z,15.21
2022-10-22T03:06:49.022Z,15.19
2022-10-22T03:08:52.118Z,15.16
2022-10-22T03:10:55.188Z,15.13
2022-10-22T03:12:58.238Z,15.15
2022-10-22T03:15:01.242Z,15.13
2022-10-22T03:17:04.282Z,15.11
2022-10-22T03:19:07.321Z,15.07
2022-10-22T03:21:12.242Z,15.02
2022-10-22T03:23:19.335Z,15.07
2022-10-22T03:25:25.103Z,15.04
2022-10-22T03:27:29.589Z,15.00
2022-10-22T03:29:34.723Z,14.97
2022-10-22T03:31:37.972Z,14.99
2022-10-22T03:33:40.991Z,14.97
2022-10-22T03:35:46.463Z,14.99
2022-10-22T03:37:49.928Z,15.00
2022-10-22T03:39:54.776Z,14.99
2022-10-22T03:41:58.228Z,14.70
2022-10-22T03:44:01.773Z,15.03
2022-10-22T03:46:04.896Z,15.04
2022-10-22T03:48:08.004Z,15.05
2022-10-22T03:50:11.662Z,14.97
2022-10-22T03:52:15.663Z,14.91
2022-10-22T03:54:18.721Z,14.93
2022-10-22T03:56:23.209Z,14.94
2022-10-22T03:58:26.259Z,14.96
2022-10-22T04:00:29.381Z,14.92
2022-10-22T04:02:32.417Z,14.95
2022-10-22T04:04:35.535Z,14.97
2022-10-22T04:06:38.632Z,14.86
2022-10-22T04:08:42.675Z,14.70
2022-10-22T04:10:51.721Z,14.69
2022-10-22T04:12:56.155Z,14.72
2022-10-22T04:14:59.159Z,14.68
2022-10-22T04:17:02.234Z,14.65
2022-10-22T04:19:05.272Z,14.61
2022-10-22T04:21:08.882Z,14.58
2022-10-22T04:23:11.910Z,14.58
2022-10-22T04:25:14.943Z,14.59
2022-10-22T04:27:17.971Z,14.66
2022-10-22T04:29:22.467Z,14.72
2022-10-22T04:31:26.403Z,14.74
2022-10-22T04:33:29.386Z,14.67
2022-10-22T04:35:32.423Z,14.61
2022-10-22T04:37:35.436Z,14.63
2022-10-22T04:39:38.427Z,14.61
2022-10-22T04:41:41.858Z,14.36
2022-10-22T04:43:45.091Z,14.56
2022-10-22T04:45:49.597Z,14.53
2022-10-22T04:47:53.260Z,14.52
2022-10-22T04:49:56.319Z,14.50
2022-10-22T04:51:59.333Z,14.48
2022-10-22T04:54:02.480Z,14.47
2022-10-22T04:56:09.495Z,14.20
2022-10-22T04:58:12.504Z,14.43
2022-10-22T05:00:16.563Z,14.40
2022-10-22T05:02:20.901Z,14.40
2022-10-22T05:04:23.958Z,14.36
2022-10-22T05:06:27.522Z,14.36
2022-10-22T05:08:30.556Z,14.36
2022-10-22T05:10:33.600Z,14.35
2022-10-22T05:12:36.695Z,14.38
2022-10-22T05:14:43.990Z,14.37
2022-10-22T05:16:49.017Z,14.39
2022-10-22T05:18:54.288Z,14.46
2022-10-22T05:20:57.351Z,14.49
2022-10-22T05:23:00.408Z,14.47
2022-10-22T05:25:03.510Z,14.50
2022-10-22T05:27:06.566Z,14.52
2022-10-22T05:29:09.679Z,14.54
2022-10-22T05:31:13.973Z,14.51
2022-10-22T05:33:20.687Z,14.42
2022-10-22T05:35:27.715Z,14.30
2022-10-22T05:37:30.789Z,14.29
2022-10-22T05:39:36.606Z,14.27
2022-10-22T05:41:39.753Z,14.37
2022-10-22T05:43:42.907Z,14.44
2022-10-22T05:45:46.067Z,14.50
2022-10-22T05:47:49.532Z,14.49
2022-10-22T05:49:52.579Z,14.51
2022-10-22T05:51:56.974Z,14.55
2022-10-22T05:54:01.110Z,14.58
2022-10-22T05:56:04.915Z,14.61
2022-10-22T05:58:08.037Z,14.59
2022-10-22T06:00:14.261Z,14.55
2022-10-22T06:02:19.593Z,14.55
2022-10-22T06:04:22.635Z,14.47
2022-10-22T06:06:28.161Z,14.42
2022-10-22T06:08:32.611Z,14.40
2022-10-22T06:10:35.868Z,14.37
2022-10-22T06:12:39.169Z,14.31
2022-10-22T06:14:42.444Z,14.36
2022-10-22T06:16:45.791Z,14.37
2022-10-22T06:18:48.845Z,14.33
2022-10-22T06:20:51.994Z,14.31
2022-10-22T06:22:55.075Z,14.30
2022-10-22T06:24:59.434Z,14.27
2022-10-22T06:27:02.571Z,14.30
2022-10-22T06:29:05.707Z,14.29
2022-10-22T06:31:08.692Z,14.30
2022-10-22T06:33:11.717Z,14.30
2022-10-22T06:35:14.719Z,14.31
2022-10-22T06:37:17.949Z,14.29
2022-10-22T06:39:20.956Z,14.29
2022-10-22T06:41:28.697Z,14.28
2022-10-22T06:43:35.987Z,14.32
2022-10-22T06:45:39.162Z,14.41
2022-10-22T06:47:42.509Z,14.44
2022-10-22T06:49:45.872Z,14.45
2022-10-22T06:51:51.097Z,14.50
2022-10-22T06:53:54.563Z,14.55
2022-10-22T06:55:58.396Z,14.61
2022-10-22T06:58:02.929Z,14.64
2022-10-22T07:00:06.618Z,14.69
2022-10-22T07:02:09.871Z,14.67
2022-10-22T07:04:12.901Z,14.67
2022-10-22T07:06:16.217Z,14.66
2022-10-22T07:08:19.268Z,14.64
2022-10-22T07:10:22.562Z,14.62
2022-10-22T07:12:26.584Z,14.59
2022-10-22T07:14:30.941Z,14.60
2022-10-22T07:16:34.015Z,14.57
2022-10-22T07:18:38.288Z,14.50
2022-10-22T07:20:41.301Z,14.58
2022-10-22T07:22:44.406Z,14.65
2022-10-22T07:24:47.430Z,14.68
2022-10-22T07:26:50.607Z,14.79
2022-10-22T07:28:53.672Z,14.52
2022-10-22T07:30:58.011Z,14.80
2022-10-22T07:33:01.027Z,14.86
2022-10-22T07:35:04.596Z,14.94
2022-10-22T07:37:07.589Z,14.96
2022-10-22T07:39:10.669Z,14.99
2022-10-22T07:41:13.807Z,15.08
2022-10-22T07:43:16.837Z,15.17
2022-10-22T07:45:19.901Z,15.12
2022-10-22T07:47:24.401Z,15.14
2022-10-22T07:49:27.597Z,15.11
2022-10-22T07:51:30.689Z,15.15
2022-10-22T07:53:34.190Z,15.18
2022-10-22T07:55:37.787Z,15.17
2022-10-22T07:57:41.043Z,15.14
2022-10-22T07:59:44.091Z,15.18
2022-10-22T08:01:47.418Z,15.21
2022-10-22T08:03:51.922Z,15.28
2022-10-22T08:05:55.152Z,15.33
2022-10-22T08:07:58.266Z,15.41
2022-10-22T08:10:01.297Z,15.52
2022-10-22T08:12:04.497Z,15.57
2022-10-22T08:14:07.566Z,15.63
2022-10-22T08:16:10.593Z,15.72
2022-10-22T08:18:13.664Z,15.81
2022-10-22T08:20:18.371Z,15.91
2022-10-22T08:22:21.474Z,15.88
2022-10-22T08:24:24.552Z,15.84
2022-10-22T08:26:27.565Z,15.93
2022-10-22T08:28:32.828Z,15.98
2022-10-22T08:30:37.911Z,15.95
2022-10-22T08:32:41.595Z,15.93
2022-10-22T08:34:44.615Z,15.83
2022-10-22T08:36:49.029Z,15.82
2022-10-22T08:38:52.219Z,15.87
2022-10-22T08:40:57.877Z,15.89
2022-10-22T08:43:18.647Z,15.88
2022-10-22T08:45:23.911Z,15.91
2022-10-22T08:47:35.154Z,15.95
2022-10-22T08:49:42.023Z,16.03
2022-10-22T08:51:45.384Z,16.02
2022-10-22T08:53:57.931Z,16.03
2022-10-22T08:56:01.056Z,15.97
2022-10-22T08:58:09.721Z,16.05
2022-10-22T09:00:14.496Z,16.12
2022-10-22T09:02:23.497Z,16.13
2022-10-22T09:04:30.099Z,16.15
2022-10-22T09:06:34.412Z,16.17
2022-10-22T09:08:38.712Z,16.17
2022-10-22T09:10:47.033Z,16.20
2022-10-22T09:12:50.067Z,16.18
2022-10-22T09:14:53.080Z,16.18
2022-10-22T09:17:13.111Z,16.24
2022-10-22T09:19:19.107Z,16.34
2022-10-22T09:21:27.693Z,16.32
2022-10-22T09:23:33.734Z,16.32
2022-10-22T09:25:38.020Z,16.45
2022-10-22T09:27:42.854Z,16.50
2022-10-22T09:29:46.785Z,16.51
2022-10-22T09:31:50.041Z,16.55
2022-10-22T09:33:53.057Z,16.56
2022-10-22T09:35:57.242Z,16.47
2022-10-22T09:38:06.841Z,16.58
2022-10-22T09:40:14.925Z,16.55
2022-10-22T09:42:19.052Z,16.54
2022-10-22T09:44:23.610Z,16.49
2022-10-22T09:46:28.423Z,16.33
2022-10-22T09:48:34.359Z,16.32
2022-10-22T09:50:39.998Z,16.31
2022-10-22T09:52:43.832Z,16.34
2022-10-22T09:54:47.172Z,16.39
2022-10-22T09:56:54.258Z,16.47
2022-10-22T09:58:57.931Z,16.38
2022-10-22T10:01:02.632Z,16.32
2022-10-22T10:03:05.856Z,16.36
2022-10-22T10:05:09.303Z,16.39
2022-10-22T10:07:18.982Z,16.46
2022-10-22T10:09:23.038Z,16.55
2022-10-22T10:11:29.644Z,16.57
2022-10-22T10:13:44.557Z,16.59
2022-10-22T10:15:51.240Z,16.39
2022-10-22T10:18:02.005Z,16.33
2022-10-22T10:20:15.285Z,16.42
2022-10-22T10:22:26.808Z,16.42
2022-10-22T10:24:34.382Z,16.42
2022-10-22T10:26:40.260Z,16.34
2022-10-22T10:28:54.621Z,16.41
2022-10-22T10:31:03.539Z,16.48
2022-10-22T10:33:11.967Z,16.38
2022-10-22T10:35:19.907Z,16.32
2022-10-22T10:37:24.570Z,16.36
2022-10-22T10:39:32.065Z,16.37
2022-10-22T10:41:44.003Z,16.38
2022-10-22T10:43:56.791Z,16.46
2022-10-22T10:46:03.572Z,16.46
2022-10-22T10:48:23.560Z,16.42
2022-10-22T10:50:29.588Z,16.41
2022-10-22T10:52:35.508Z,16.50
2022-10-22T10:54:47.479Z,16.46
2022-10-22T10:56:52.719Z,16.41
2022-10-22T10:59:01.179Z,16.42
2022-10-22T11:01:08.484Z,16.45
2022-10-22T11:03:33.177Z,16.50
2022-10-22T11:05:39.066Z,16.54
2022-10-22T11:07:46.352Z,16.49
2022-10-22T11:09:54.521Z,16.54
2022-10-22T11:12:00.409Z,16.60
2022-10-22T11:14:07.288Z,16.54
2022-10-22T11:16:13.895Z,16.55
2022-10-22T11:18:19.932Z,16.57
2022-10-22T11:20:26.572Z,16.54
2022-10-22T11:22:32.723Z,16.63
2022-10-22T11:24:38.176Z,16.66
2022-10-22T11:26:45.466Z,16.62
2022-10-22T11:28:50.940Z,16.57
2022-10-22T11:30:58.333Z,16.60
2022-10-22T11:33:02.671Z,16.72
2022-10-22T11:35:07.703Z,16.68
2022-10-22T11:37:12.761Z,16.72
2022-10-22T11:39:35.038Z,16.74
2022-10-22T11:41:38.117Z,16.69
2022-10-22T11:43:57.033Z,16.71
2022-10-22T11:46:09.092Z,16.68
2022-10-22T11:48:18.803Z,16.75
2022-10-22T11:50:25.300Z,16.69
2022-10-22T11:52:40.189Z,16.75
2022-10-22T11:54:45.922Z,16.75
2022-10-22T11:56:52.843Z,16.82
2022-10-22T11:58:56.504Z,16.83
2022-10-22T12:01:18.408Z,16.87
2022-10-22T12:03:25.703Z,16.92
2022-10-22T12:05:37.595Z,16.96
2022-10-22T12:07:54.363Z,16.98
2022-10-22T12:09:58.630Z,16.91
2022-10-22T12:12:19.282Z,16.94
2022-10-22T12:14:26.525Z,16.85
2022-10-22T12:16:56.305Z,16.96
2022-10-22T12:19:03.245Z,17.01
2022-10-22T12:21:06.427Z,17.13
2022-10-22T12:23:12.575Z,17.27
2022-10-22T12:25:21.486Z,17.13
2022-10-22T12:27:25.620Z,17.22
2022-10-22T12:29:28.660Z,17.28
2022-10-22T12:31:36.520Z,17.21
2022-10-22T12:33:39.670Z,17.30
2022-10-22T12:35:43.800Z,17.39
2022-10-22T12:37:49.920Z,17.33
2022-10-22T12:39:54.250Z,17.42
2022-10-22T12:41:57.373Z,17.43
2022-10-22T12:44:00.730Z,17.44
2022-10-22T12:46:03.777Z,17.37
2022-10-22T12:48:08.968Z,17.42
2022-10-22T12:50:17.703Z,17.56
2022-10-22T12:52:22.338Z,17.78
2022-10-22T12:54:26.848Z,17.91
2022-10-22T12:56:33.527Z,17.96
2022-10-22T12:58:39.283Z,18.63
2022-10-22T13:00:42.361Z,19.29
2022-10-22T13:02:45.595Z,19.18
2022-10-22T13:05:03.487Z,19.18
2022-10-22T13:07:21.121Z,19.59
2022-10-22T13:09:27.709Z,19.76
2022-10-22T13:11:34.904Z,20.28
2022-10-22T13:13:43.369Z,20.45
2022-10-22T13:15:46.455Z,20.64
2022-10-22T13:17:49.822Z,20.98
2022-10-22T13:20:01.747Z,20.97
2022-10-22T13:22:04.816Z,21.15
2022-10-22T13:24:20.513Z,20.84
2022-10-22T13:26:24.588Z,21.48
2022-10-22T13:28:29.654Z,21.16
2022-10-22T13:30:33.842Z,20.74
2022-10-22T13:32:36.872Z,21.08
2022-10-22T13:34:40.652Z,21.09
2022-10-22T13:36:43.822Z,20.94
2022-10-22T13:38:47.948Z,20.92
2022-10-22T13:40:51.113Z,20.89
2022-10-22T13:42:54.743Z,21.07
2022-10-22T13:44:59.148Z,21.36
2022-10-22T13:47:02.167Z,21.57
2022-10-22T13:49:05.856Z,21.58
2022-10-22T13:51:14.524Z,21.90
2022-10-22T13:53:19.125Z,21.90
2022-10-22T13:55:25.443Z,21.84
2022-10-22T13:57:28.604Z,21.07
2022-10-22T13:59:31.648Z,20.98
2022-10-22T14:01:37.386Z,20.70
2022-10-22T14:03:40.718Z,20.35
2022-10-22T14:05:43.952Z,19.85
2022-10-22T14:07:47.124Z,19.83
2022-10-22T14:09:50.227Z,19.84
2022-10-22T14:11:53.276Z,19.85
2022-10-22T14:13:56.279Z,20.41
2022-10-22T14:15:59.301Z,20.98
2022-10-22T14:18:05.497Z,21.28
2022-10-22T14:20:11.131Z,21.67
2022-10-22T14:22:18.157Z,21.69
2022-10-22T14:24:21.251Z,21.69
2022-10-22T14:26:24.946Z,21.16
2022-10-22T14:28:31.370Z,20.90
2022-10-22T14:30:34.543Z,20.30
2022-10-22T14:32:37.653Z,20.20
2022-10-22T14:34:42.316Z,20.10
2022-10-22T14:36:45.412Z,20.05
2022-10-22T14:38:48.813Z,19.88
2022-10-22T14:40:51.911Z,20.04
2022-10-22T14:42:54.982Z,19.61
2022-10-22T14:44:58.042Z,19.77
2022-10-22T14:47:01.208Z,19.53
2022-10-22T14:49:04.530Z,19.47
2022-10-22T14:51:12.822Z,19.54
2022-10-22T14:53:16.694Z,19.43
2022-10-22T14:55:20.219Z,19.38
2022-10-22T14:57:23.334Z,19.47
2022-10-22T14:59:26.557Z,19.40
2022-10-22T15:01:29.553Z,19.36
2022-10-22T15:03:32.631Z,19.21
2022-10-22T15:05:36.261Z,19.29
2022-10-22T15:07:41.678Z,19.32
2022-10-22T15:09:45.254Z,19.42
2022-10-22T15:11:48.591Z,19.63
2022-10-22T15:13:52.871Z,19.61
2022-10-22T15:15:56.272Z,19.40
2022-10-22T15:17:59.546Z,19.38
2022-10-22T15:20:04.191Z,19.38
2022-10-22T15:22:08.374Z,19.25
2022-10-22T15:24:13.082Z,19.25
2022-10-22T15:26:16.761Z,19.16
2022-10-22T15:28:20.441Z,19.10
2022-10-22T15:30:23.736Z,19.09
2022-10-22T15:32:28.337Z,18.90
2022-10-22T15:34:35.426Z,18.83
2022-10-22T15:36:38.677Z,18.73
2022-10-22T15:38:41.674Z,18.63
2022-10-22T15:40:46.125Z,18.63
2022-10-22T15:42:49.215Z,18.61
2022-10-22T15:44:57.988Z,18.55
2022-10-22T15:47:02.500Z,18.48
2022-10-22T15:49:06.358Z,18.48
2022-10-22T15:51:10.867Z,18.48
2022-10-22T15:53:13.896Z,18.48
2022-10-22T15:55:17.134Z,18.55
2022-10-22T15:57:21.501Z,18.62
2022-10-22T15:59:25.057Z,18.67
2022-10-22T16:01:28.241Z,18.70
2022-10-22T16:05:39.189Z,18.71
2022-10-22T16:07:42.811Z,18.67
2022-10-22T16:09:46.187Z,18.54
2022-10-22T16:11:49.735Z,18.40
2022-10-22T16:13:56.218Z,18.35
2022-10-22T16:15:59.274Z,18.25
2022-10-22T16:18:02.328Z,18.20
2022-10-22T16:20:05.738Z,18.20
2022-10-22T16:22:10.156Z,18.26
2022-10-22T16:24:13.253Z,18.29
2022-10-22T16:26:17.217Z,18.30
2022-10-22T16:28:20.289Z,18.29
2022-10-22T16:30:24.758Z,18.31
2022-10-22T16:32:27.941Z,18.30
2022-10-22T16:34:31.134Z,18.29
2022-10-22T16:36:35.946Z,18.21
2022-10-22T16:38:39.319Z,18.16
2022-10-22T16:40:42.518Z,18.11
2022-10-22T16:42:45.602Z,18.04
2022-10-22T16:44:48.754Z,18.03
2022-10-22T16:46:53.172Z,17.99
2022-10-22T16:48:56.570Z,17.97
2022-10-22T16:50:59.657Z,17.96
2022-10-22T16:53:02.638Z,17.82
2022-10-22T16:55:06.058Z,17.71
2022-10-22T16:57:09.114Z,17.53
2022-10-22T16:59:12.138Z,17.49
2022-10-22T17:01:17.978Z,17.53
2022-10-22T17:03:24.611Z,17.51
2022-10-22T17:05:31.642Z,17.47
2022-10-22T17:07:34.646Z,17.47
2022-10-22T17:09:37.706Z,17.50
2022-10-22T17:11:42.676Z,17.53
2022-10-22T17:13:48.999Z,17.55
2022-10-22T17:15:52.043Z,17.54
2022-10-22T17:17:55.116Z,17.54
2022-10-22T17:19:59.686Z,17.45
2022-10-22T17:22:02.779Z,17.47
2022-10-22T17:24:05.856Z,17.48
2022-10-22T17:26:10.205Z,17.49
2022-10-22T17:28:13.266Z,17.45
2022-10-22T17:30:17.597Z,17.41
2022-10-22T17:32:20.618Z,17.39
2022-10-22T17:34:23.645Z,17.39
2022-10-22T17:36:34.817Z,17.39
2022-10-22T17:38:40.206Z,17.39
2022-10-22T17:40:43.210Z,17.37
2022-10-22T17:42:46.451Z,17.37
2022-10-22T17:44:49.486Z,17.38
2022-10-22T17:46:53.287Z,17.36
2022-10-22T17:48:57.424Z,17.35
2022-10-22T17:51:00.460Z,17.33
2022-10-22T17:53:04.875Z,17.28
2022-10-22T17:55:08.331Z,17.28
2022-10-22T17:57:13.340Z,17.30
2022-10-22T17:59:17.072Z,17.29
2022-10-22T18:01:22.323Z,17.26
2022-10-22T18:03:25.477Z,17.26
2022-10-22T18:05:28.652Z,17.22
2022-10-22T18:07:31.702Z,17.22
2022-10-22T18:09:36.217Z,17.19
2022-10-22T18:11:39.264Z,17.17
2022-10-22T18:13:42.308Z,17.19
2022-10-22T18:15:45.295Z,17.13
2022-10-22T18:17:50.238Z,17.10
2022-10-22T18:19:53.268Z,17.05
2022-10-22T18:21:56.336Z,17.02
2022-10-22T18:23:59.986Z,17.02
2022-10-22T18:26:06.421Z,16.97
2022-10-22T18:28:09.463Z,16.94
2022-10-22T18:30:12.712Z,16.97
2022-10-22T18:32:15.749Z,16.98
2022-10-22T18:34:21.690Z,16.94
2022-10-22T18:36:27.780Z,16.90
2022-10-22T18:38:30.838Z,16.88
2022-10-22T18:40:35.933Z,16.88
2022-10-22T18:42:40.509Z,16.86
2022-10-22T18:44:43.996Z,16.81
2022-10-22T18:46:47.048Z,16.79
2022-10-22T18:48:50.650Z,16.79
2022-10-22T18:50:59.668Z,16.77
2022-10-22T18:53:02.746Z,16.78
2022-10-22T18:55:06.675Z,16.73
2022-10-22T18:57:09.674Z,16.71
2022-10-22T18:59:18.336Z,16.65
2022-10-22T19:01:22.216Z,16.60
2022-10-22T19:03:25.284Z,16.57
2022-10-22T19:05:28.318Z,16.44
2022-10-22T19:07:31.717Z,16.37
2022-10-22T19:09:34.844Z,16.38
2022-10-22T19:11:37.895Z,16.35
2022-10-22T19:13:41.169Z,16.36
2022-10-22T19:15:45.549Z,16.25
2022-10-22T19:17:48.565Z,16.19
2022-10-22T19:19:51.675Z,16.20
2022-10-22T19:21:56.463Z,16.14
2022-10-22T19:24:00.269Z,16.04
2022-10-22T19:26:05.444Z,16.05
2022-10-22T19:28:08.547Z,15.98
2022-10-22T19:30:11.988Z,15.84
2022-10-22T19:32:16.560Z,15.80
2022-10-22T19:34:19.734Z,15.88
2022-10-22T19:36:24.233Z,15.84
2022-10-22T19:38:29.682Z,15.66
2022-10-22T19:40:32.746Z,15.61
2022-10-22T19:42:36.666Z,15.66
2022-10-22T19:44:39.808Z,15.71
2022-10-22T19:46:42.822Z,15.75
2022-10-22T19:48:47.808Z,15.79
2022-10-22T19:50:50.989Z,15.83
2022-10-22T19:52:54.023Z,15.89
2022-10-22T19:54:57.010Z,15.96
2022-10-22T19:57:00.126Z,16.00
2022-10-22T19:59:03.242Z,16.02
2022-10-22T20:01:06.604Z,16.02
2022-10-22T20:03:09.726Z,15.99
2022-10-22T20:05:14.313Z,15.95
2022-10-22T20:07:17.382Z,15.98
2022-10-22T20:09:20.584Z,15.92
2022-10-22T20:11:24.564Z,15.94
2022-10-22T20:13:27.611Z,15.96
2022-10-22T20:15:32.519Z,15.96
2022-10-22T20:17:35.530Z,15.97
2022-10-22T20:19:38.537Z,15.92
2022-10-22T20:21:43.113Z,15.91
2022-10-22T20:23:46.178Z,15.91
2022-10-22T20:25:49.251Z,15.80
2022-10-22T20:27:52.290Z,15.77
2022-10-22T20:29:55.306Z,15.79
2022-10-22T20:31:58.499Z,15.76
2022-10-22T20:34:02.078Z,15.80
2022-10-22T20:36:06.728Z,15.81
2022-10-22T20:38:13.956Z,15.77
2022-10-22T20:40:17.023Z,15.77
2022-10-22T20:42:20.169Z,15.79
2022-10-22T20:44:23.222Z,15.81
2022-10-22T20:46:27.255Z,15.84
2022-10-22T20:48:31.313Z,15.80
2022-10-22T20:50:34.383Z,15.84
2022-10-22T20:52:37.371Z,15.84
2022-10-22T20:54:44.104Z,15.79
2022-10-22T20:56:47.860Z,15.60
2022-10-22T20:58:56.567Z,15.56
2022-10-22T21:01:01.955Z,15.55
2022-10-22T21:03:05.084Z,15.56
2022-10-22T21:05:08.474Z,15.56
2022-10-22T21:07:11.497Z,15.54
2022-10-22T21:09:15.302Z,15.46
2022-10-22T21:11:20.345Z,15.49
2022-10-22T21:13:23.412Z,15.43
2022-10-22T21:15:27.592Z,15.47
2022-10-22T21:17:30.622Z,15.53
2022-10-22T21:19:33.663Z,15.56
2022-10-22T21:21:36.678Z,15.51
2022-10-22T21:23:40.138Z,15.45
2022-10-22T21:25:53.119Z,15.49
2022-10-22T21:27:57.496Z,15.51
2022-10-22T21:30:00.507Z,15.47
2022-10-22T21:32:03.756Z,15.51
2022-10-22T21:34:06.896Z,15.59
2022-10-22T21:36:10.067Z,15.61
2022-10-22T21:38:13.172Z,15.59
2022-10-22T21:40:16.314Z,15.49
2022-10-22T21:42:19.396Z,15.54
2022-10-22T21:44:23.768Z,15.51
2022-10-22T21:46:27.808Z,15.53
2022-10-22T21:48:31.041Z,15.45
2022-10-22T21:50:34.035Z,15.41
2022-10-22T21:52:37.049Z,15.32
2022-10-22T21:54:40.379Z,15.26
2022-10-22T21:56:43.418Z,15.27
2022-10-22T21:58:46.406Z,15.17
2022-10-22T22:00:55.919Z,15.20
2022-10-22T22:02:58.996Z,15.16
2022-10-22T22:05:02.140Z,15.15
2022-10-22T22:07:05.133Z,15.16
2022-10-22T22:09:08.348Z,15.16
2022-10-22T22:11:12.128Z,15.21
2022-10-22T22:13:17.166Z,15.27
2022-10-22T22:15:21.276Z,15.24
2022-10-22T22:17:25.651Z,15.24
2022-10-22T22:19:28.756Z,15.25
2022-10-22T22:21:31.957Z,15.28
2022-10-22T22:23:37.311Z,15.27
2022-10-22T22:25:40.394Z,15.25
2022-10-22T22:27:43.582Z,15.23
2022-10-22T22:29:47.644Z,15.29
2022-10-22T22:31:50.699Z,15.31
2022-10-22T22:33:58.263Z,15.34
2022-10-22T22:36:01.220Z,15.36
2022-10-22T22:38:04.316Z,15.35
2022-10-22T22:40:07.937Z,15.33
2022-10-22T22:42:11.013Z,15.38
2022-10-22T22:44:14.170Z,15.35
2022-10-22T22:46:17.264Z,15.38
2022-10-22T22:48:20.345Z,15.36
2022-10-22T22:50:24.732Z,15.41
2022-10-22T22:52:27.702Z,15.36
2022-10-22T22:54:31.182Z,15.38
2022-10-22T22:56:35.261Z,15.36
2022-10-22T22:58:38.897Z,15.35
2022-10-22T23:02:49.891Z,15.27
2022-10-22T23:04:52.941Z,15.29
2022-10-22T23:06:57.392Z,15.29
2022-10-22T23:09:00.744Z,15.30
2022-10-22T23:11:04.852Z,15.32
2022-10-22T23:13:07.837Z,15.31
2022-10-22T23:15:11.327Z,15.27
2022-10-22T23:17:14.413Z,15.28
2022-10-22T23:19:18.669Z,15.32
2022-10-22T23:21:22.843Z,15.29
2022-10-22T23:23:27.222Z,15.24
2022-10-22T23:25:30.445Z,14.94
2022-10-22T23:27:33.515Z,15.23
2022-10-22T23:29:36.987Z,15.24
2022-10-22T23:31:40.179Z,15.22
2022-10-22T23:33:43.549Z,15.20
2022-10-22T23:35:46.800Z,15.18
2022-10-22T23:37:49.847Z,15.18
2022-10-22T23:39:54.280Z,15.17
2022-10-22T23:41:57.409Z,15.14
2022-10-22T23:44:00.422Z,15.14
2022-10-22T23:46:03.575Z,15.09
2022-10-22T23:48:06.874Z,15.07
2022-10-22T23:50:09.972Z,15.10
2022-10-22T23:52:12.975Z,15.07
2022-10-22T23:54:17.735Z,15.06
2022-10-22T23:56:22.155Z,15.04
2022-10-22T23:58:25.205Z,14.99
